sensor_id;sensor_type;location;lat;lon;timestamp;P1;durP1;ratioP1;P2;durP2;ratioP2
52724;SDS011;38621;52.830;6.914;2023-11-19T00:00:49;25.65;;;23.52;;
52724;SDS011;38621;52.830;6.914;2023-11-19T00:03:16;27.42;;;25.45;;
52724;SDS011;38621;52.830;6.914;2023-11-19T00:05:42;28.67;;;26.63;;
52724;SDS011;38621;52.830;6.914;2023-11-19T00:08:09;26.80;;;24.70;;
52724;SDS011;38621;52.830;6.914;2023-11-19T00:10:35;26.95;;;24.95;;
52724;SDS011;38621;52.830;6.914;2023-11-19T00:13:01;25.25;;;23.42;;
52724;SDS011;38621;52.830;6.914;2023-11-19T00:15:27;27.55;;;25.42;;
52724;SDS011;38621;52.830;6.914;2023-11-19T00:17:53;29.92;;;27.60;;
52724;SDS011;38621;52.830;6.914;2023-11-19T00:20:20;25.83;;;23.52;;
52724;SDS011;38621;52.830;6.914;2023-11-19T00:22:47;26.42;;;24.15;;
52724;SDS011;38621;52.830;6.914;2023-11-19T00:25:19;30.27;;;28.17;;
52724;SDS011;38621;52.830;6.914;2023-11-19T00:27:46;35.38;;;32.60;;
52724;SDS011;38621;52.830;6.914;2023-11-19T00:30:12;31.98;;;29.70;;
52724;SDS011;38621;52.830;6.914;2023-11-19T00:32:39;29.17;;;26.67;;
52724;SDS011;38621;52.830;6.914;2023-11-19T00:35:06;30.00;;;27.70;;
52724;SDS011;38621;52.830;6.914;2023-11-19T00:37:32;30.17;;;27.85;;
52724;SDS011;38621;52.830;6.914;2023-11-19T00:39:58;31.95;;;29.20;;
52724;SDS011;38621;52.830;6.914;2023-11-19T00:42:24;30.83;;;28.20;;
52724;SDS011;38621;52.830;6.914;2023-11-19T00:44:50;30.55;;;27.85;;
52724;SDS011;38621;52.830;6.914;2023-11-19T00:47:16;31.95;;;29.15;;
52724;SDS011;38621;52.830;6.914;2023-11-19T00:49:45;32.90;;;29.98;;
52724;SDS011;38621;52.830;6.914;2023-11-19T00:52:14;32.17;;;29.30;;
52724;SDS011;38621;52.830;6.914;2023-11-19T00:54:40;32.83;;;30.08;;
52724;SDS011;38621;52.830;6.914;2023-11-19T00:57:06;34.40;;;31.42;;
52724;SDS011;38621;52.830;6.914;2023-11-19T00:59:31;33.33;;;30.25;;
52724;SDS011;38621;52.830;6.914;2023-11-19T01:01:57;32.60;;;29.95;;
52724;SDS011;38621;52.830;6.914;2023-11-19T01:04:28;34.25;;;31.17;;
52724;SDS011;38621;52.830;6.914;2023-11-19T01:06:54;33.63;;;31.17;;
52724;SDS011;38621;52.830;6.914;2023-11-19T01:09:20;35.55;;;32.42;;
52724;SDS011;38621;52.830;6.914;2023-11-19T01:11:45;35.72;;;32.88;;
52724;SDS011;38621;52.830;6.914;2023-11-19T01:14:11;36.70;;;33.58;;
52724;SDS011;38621;52.830;6.914;2023-11-19T01:16:37;34.97;;;32.25;;
52724;SDS011;38621;52.830;6.914;2023-11-19T01:19:02;33.30;;;30.35;;
52724;SDS011;38621;52.830;6.914;2023-11-19T01:21:30;33.17;;;30.17;;
52724;SDS011;38621;52.830;6.914;2023-11-19T01:23:57;32.08;;;29.30;;
52724;SDS011;38621;52.830;6.914;2023-11-19T01:26:24;33.65;;;30.85;;
52724;SDS011;38621;52.830;6.914;2023-11-19T01:28:50;33.85;;;31.27;;
52724;SDS011;38621;52.830;6.914;2023-11-19T01:31:17;33.63;;;30.50;;
52724;SDS011;38621;52.830;6.914;2023-11-19T01:33:43;33.88;;;31.17;;
52724;SDS011;38621;52.830;6.914;2023-11-19T01:36:12;30.98;;;28.13;;
52724;SDS011;38621;52.830;6.914;2023-11-19T01:38:38;35.92;;;32.85;;
52724;SDS011;38621;52.830;6.914;2023-11-19T01:41:04;33.20;;;30.05;;
52724;SDS011;38621;52.830;6.914;2023-11-19T01:46:02;31.60;;;28.80;;
52724;SDS011;38621;52.830;6.914;2023-11-19T01:48:29;30.92;;;28.13;;
52724;SDS011;38621;52.830;6.914;2023-11-19T01:50:57;32.47;;;29.73;;
52724;SDS011;38621;52.830;6.914;2023-11-19T01:53:24;31.63;;;28.90;;
52724;SDS011;38621;52.830;6.914;2023-11-19T01:55:50;33.40;;;30.70;;
52724;SDS011;38621;52.830;6.914;2023-11-19T01:58:17;35.17;;;32.22;;
52724;SDS011;38621;52.830;6.914;2023-11-19T02:00:44;36.03;;;33.50;;
52724;SDS011;38621;52.830;6.914;2023-11-19T02:03:10;35.80;;;33.15;;
52724;SDS011;38621;52.830;6.914;2023-11-19T02:05:37;35.83;;;32.70;;
52724;SDS011;38621;52.830;6.914;2023-11-19T02:08:03;36.92;;;34.25;;
52724;SDS011;38621;52.830;6.914;2023-11-19T02:10:29;36.53;;;33.53;;
52724;SDS011;38621;52.830;6.914;2023-11-19T02:12:57;35.95;;;33.05;;
52724;SDS011;38621;52.830;6.914;2023-11-19T02:15:26;36.38;;;33.88;;
52724;SDS011;38621;52.830;6.914;2023-11-19T02:17:52;38.00;;;34.70;;
52724;SDS011;38621;52.830;6.914;2023-11-19T02:20:18;34.80;;;32.05;;
52724;SDS011;38621;52.830;6.914;2023-11-19T02:22:48;31.02;;;28.63;;
52724;SDS011;38621;52.830;6.914;2023-11-19T02:25:20;33.30;;;30.58;;
52724;SDS011;38621;52.830;6.914;2023-11-19T02:28:01;33.65;;;30.92;;
52724;SDS011;38621;52.830;6.914;2023-11-19T02:30:28;30.80;;;28.40;;
52724;SDS011;38621;52.830;6.914;2023-11-19T02:32:58;30.38;;;28.08;;
52724;SDS011;38621;52.830;6.914;2023-11-19T02:35:26;29.83;;;27.42;;
52724;SDS011;38621;52.830;6.914;2023-11-19T02:37:56;28.80;;;26.00;;
52724;SDS011;38621;52.830;6.914;2023-11-19T02:40:22;30.02;;;27.42;;
52724;SDS011;38621;52.830;6.914;2023-11-19T02:42:49;24.88;;;22.63;;
52724;SDS011;38621;52.830;6.914;2023-11-19T02:45:16;28.02;;;25.05;;
52724;SDS011;38621;52.830;6.914;2023-11-19T02:47:42;28.35;;;26.27;;
52724;SDS011;38621;52.830;6.914;2023-11-19T02:50:11;28.73;;;26.20;;
52724;SDS011;38621;52.830;6.914;2023-11-19T02:52:43;28.45;;;25.83;;
52724;SDS011;38621;52.830;6.914;2023-11-19T02:55:10;26.02;;;23.42;;
52724;SDS011;38621;52.830;6.914;2023-11-19T02:57:40;23.45;;;21.42;;
52724;SDS011;38621;52.830;6.914;2023-11-19T03:00:19;23.10;;;20.95;;
52724;SDS011;38621;52.830;6.914;2023-11-19T03:02:50;22.00;;;20.10;;
52724;SDS011;38621;52.830;6.914;2023-11-19T03:05:39;19.15;;;17.50;;
52724;SDS011;38621;52.830;6.914;2023-11-19T03:08:05;14.90;;;13.70;;
52724;SDS011;38621;52.830;6.914;2023-11-19T03:10:32;19.08;;;13.15;;
52724;SDS011;38621;52.830;6.914;2023-11-19T03:12:59;13.57;;;12.00;;
52724;SDS011;38621;52.830;6.914;2023-11-19T03:15:27;12.40;;;11.07;;
52724;SDS011;38621;52.830;6.914;2023-11-19T03:17:52;13.52;;;10.43;;
52724;SDS011;38621;52.830;6.914;2023-11-19T03:20:19;14.55;;;10.30;;
52724;SDS011;38621;52.830;6.914;2023-11-19T03:22:45;15.57;;;9.52;;
52724;SDS011;38621;52.830;6.914;2023-11-19T03:25:11;16.25;;;10.90;;
52724;SDS011;38621;52.830;6.914;2023-11-19T03:27:38;15.45;;;10.63;;
52724;SDS011;38621;52.830;6.914;2023-11-19T03:30:05;16.30;;;12.25;;
52724;SDS011;38621;52.830;6.914;2023-11-19T03:32:32;21.88;;;12.15;;
52724;SDS011;38621;52.830;6.914;2023-11-19T03:34:58;18.45;;;10.40;;
52724;SDS011;38621;52.830;6.914;2023-11-19T03:37:24;17.33;;;12.30;;
52724;SDS011;38621;52.830;6.914;2023-11-19T03:39:51;17.77;;;12.32;;
52724;SDS011;38621;52.830;6.914;2023-11-19T03:42:19;13.65;;;11.00;;
52724;SDS011;38621;52.830;6.914;2023-11-19T03:44:45;13.25;;;12.05;;
52724;SDS011;38621;52.830;6.914;2023-11-19T03:47:11;13.35;;;12.05;;
52724;SDS011;38621;52.830;6.914;2023-11-19T03:49:37;19.25;;;12.82;;
52724;SDS011;38621;52.830;6.914;2023-11-19T03:52:03;16.10;;;13.50;;
52724;SDS011;38621;52.830;6.914;2023-11-19T03:54:31;18.00;;;13.57;;
52724;SDS011;38621;52.830;6.914;2023-11-19T03:56:58;12.93;;;11.65;;
52724;SDS011;38621;52.830;6.914;2023-11-19T03:59:25;12.48;;;9.55;;
52724;SDS011;38621;52.830;6.914;2023-11-19T04:01:50;16.80;;;9.18;;
52724;SDS011;38621;52.830;6.914;2023-11-19T04:04:18;17.33;;;10.20;;
52724;SDS011;38621;52.830;6.914;2023-11-19T04:06:44;14.45;;;8.68;;
52724;SDS011;38621;52.830;6.914;2023-11-19T04:09:10;9.82;;;6.50;;
52724;SDS011;38621;52.830;6.914;2023-11-19T04:11:35;12.70;;;6.85;;
52724;SDS011;38621;52.830;6.914;2023-11-19T04:14:01;18.60;;;8.20;;
52724;SDS011;38621;52.830;6.914;2023-11-19T04:16:27;11.98;;;7.93;;
52724;SDS011;38621;52.830;6.914;2023-11-19T04:18:53;15.40;;;8.13;;
52724;SDS011;38621;52.830;6.914;2023-11-19T04:21:19;13.10;;;6.88;;
52724;SDS011;38621;52.830;6.914;2023-11-19T04:23:45;15.68;;;7.78;;
52724;SDS011;38621;52.830;6.914;2023-11-19T04:26:11;19.73;;;9.23;;
52724;SDS011;38621;52.830;6.914;2023-11-19T04:28:36;15.10;;;8.20;;
52724;SDS011;38621;52.830;6.914;2023-11-19T04:31:02;13.95;;;7.35;;
52724;SDS011;38621;52.830;6.914;2023-11-19T04:33:28;21.58;;;7.38;;
52724;SDS011;38621;52.830;6.914;2023-11-19T04:35:54;14.38;;;7.57;;
52724;SDS011;38621;52.830;6.914;2023-11-19T04:38:20;19.85;;;8.23;;
52724;SDS011;38621;52.830;6.914;2023-11-19T04:40:45;13.20;;;6.47;;
52724;SDS011;38621;52.830;6.914;2023-11-19T04:43:11;15.77;;;7.07;;
52724;SDS011;38621;52.830;6.914;2023-11-19T04:45:38;19.42;;;7.18;;
52724;SDS011;38621;52.830;6.914;2023-11-19T04:48:05;19.63;;;7.65;;
52724;SDS011;38621;52.830;6.914;2023-11-19T04:50:30;17.00;;;6.43;;
52724;SDS011;38621;52.830;6.914;2023-11-19T04:52:56;15.13;;;6.75;;
52724;SDS011;38621;52.830;6.914;2023-11-19T04:55:22;14.40;;;6.93;;
52724;SDS011;38621;52.830;6.914;2023-11-19T04:57:47;23.67;;;7.85;;
52724;SDS011;38621;52.830;6.914;2023-11-19T05:00:13;17.85;;;7.07;;
52724;SDS011;38621;52.830;6.914;2023-11-19T05:02:39;16.50;;;8.23;;
52724;SDS011;38621;52.830;6.914;2023-11-19T05:05:05;19.98;;;7.93;;
52724;SDS011;38621;52.830;6.914;2023-11-19T05:07:31;20.55;;;7.38;;
52724;SDS011;38621;52.830;6.914;2023-11-19T05:09:56;13.88;;;7.85;;
52724;SDS011;38621;52.830;6.914;2023-11-19T05:12:22;13.32;;;9.13;;
52724;SDS011;38621;52.830;6.914;2023-11-19T05:14:48;23.17;;;8.88;;
52724;SDS011;38621;52.830;6.914;2023-11-19T05:17:18;11.63;;;7.78;;
52724;SDS011;38621;52.830;6.914;2023-11-19T05:19:45;14.35;;;8.02;;
52724;SDS011;38621;52.830;6.914;2023-11-19T05:22:11;15.52;;;9.20;;
52724;SDS011;38621;52.830;6.914;2023-11-19T05:24:38;18.38;;;9.57;;
52724;SDS011;38621;52.830;6.914;2023-11-19T05:27:04;13.13;;;7.18;;
52724;SDS011;38621;52.830;6.914;2023-11-19T05:29:32;16.23;;;8.10;;
52724;SDS011;38621;52.830;6.914;2023-11-19T05:31:57;15.50;;;9.20;;
52724;SDS011;38621;52.830;6.914;2023-11-19T05:34:23;18.25;;;10.25;;
52724;SDS011;38621;52.830;6.914;2023-11-19T05:36:50;17.35;;;9.25;;
52724;SDS011;38621;52.830;6.914;2023-11-19T05:39:16;17.85;;;9.13;;
52724;SDS011;38621;52.830;6.914;2023-11-19T05:41:43;18.95;;;9.18;;
52724;SDS011;38621;52.830;6.914;2023-11-19T05:44:09;18.35;;;8.60;;
52724;SDS011;38621;52.830;6.914;2023-11-19T05:46:35;18.48;;;9.50;;
52724;SDS011;38621;52.830;6.914;2023-11-19T05:49:05;21.40;;;7.88;;
52724;SDS011;38621;52.830;6.914;2023-11-19T05:51:31;24.55;;;10.15;;
52724;SDS011;38621;52.830;6.914;2023-11-19T05:53:56;18.65;;;9.13;;
52724;SDS011;38621;52.830;6.914;2023-11-19T05:56:22;16.88;;;8.70;;
52724;SDS011;38621;52.830;6.914;2023-11-19T05:58:48;16.75;;;7.70;;
52724;SDS011;38621;52.830;6.914;2023-11-19T06:01:14;16.45;;;8.55;;
52724;SDS011;38621;52.830;6.914;2023-11-19T06:03:40;24.55;;;8.85;;
52724;SDS011;38621;52.830;6.914;2023-11-19T06:06:08;16.48;;;9.02;;
52724;SDS011;38621;52.830;6.914;2023-11-19T06:08:34;18.95;;;8.98;;
52724;SDS011;38621;52.830;6.914;2023-11-19T06:11:00;22.83;;;9.10;;
52724;SDS011;38621;52.830;6.914;2023-11-19T06:13:26;19.15;;;8.27;;
52724;SDS011;38621;52.830;6.914;2023-11-19T06:15:52;14.98;;;7.38;;
52724;SDS011;38621;52.830;6.914;2023-11-19T06:18:18;16.60;;;7.70;;
52724;SDS011;38621;52.830;6.914;2023-11-19T06:20:45;23.90;;;7.40;;
52724;SDS011;38621;52.830;6.914;2023-11-19T06:23:10;14.48;;;8.40;;
52724;SDS011;38621;52.830;6.914;2023-11-19T06:25:36;14.02;;;7.80;;
52724;SDS011;38621;52.830;6.914;2023-11-19T06:28:02;20.63;;;8.45;;
52724;SDS011;38621;52.830;6.914;2023-11-19T06:30:28;18.60;;;7.53;;
52724;SDS011;38621;52.830;6.914;2023-11-19T06:32:55;20.63;;;8.82;;
52724;SDS011;38621;52.830;6.914;2023-11-19T06:35:21;20.10;;;8.25;;
52724;SDS011;38621;52.830;6.914;2023-11-19T06:37:47;12.80;;;7.65;;
52724;SDS011;38621;52.830;6.914;2023-11-19T06:40:12;19.38;;;8.23;;
52724;SDS011;38621;52.830;6.914;2023-11-19T06:42:40;16.95;;;8.13;;
52724;SDS011;38621;52.830;6.914;2023-11-19T06:45:06;20.17;;;8.25;;
52724;SDS011;38621;52.830;6.914;2023-11-19T06:47:32;19.90;;;7.57;;
52724;SDS011;38621;52.830;6.914;2023-11-19T06:49:58;16.08;;;8.00;;
52724;SDS011;38621;52.830;6.914;2023-11-19T06:52:24;19.02;;;7.72;;
52724;SDS011;38621;52.830;6.914;2023-11-19T06:54:50;17.38;;;7.72;;
52724;SDS011;38621;52.830;6.914;2023-11-19T06:57:16;18.38;;;8.52;;
52724;SDS011;38621;52.830;6.914;2023-11-19T06:59:42;18.73;;;7.97;;
52724;SDS011;38621;52.830;6.914;2023-11-19T07:02:08;19.58;;;8.52;;
52724;SDS011;38621;52.830;6.914;2023-11-19T07:04:34;16.40;;;7.50;;
52724;SDS011;38621;52.830;6.914;2023-11-19T07:06:59;17.20;;;8.43;;
52724;SDS011;38621;52.830;6.914;2023-11-19T07:09:25;22.65;;;8.48;;
52724;SDS011;38621;52.830;6.914;2023-11-19T07:11:52;16.55;;;9.80;;
52724;SDS011;38621;52.830;6.914;2023-11-19T07:14:18;15.27;;;8.98;;
52724;SDS011;38621;52.830;6.914;2023-11-19T07:16:44;13.48;;;7.90;;
52724;SDS011;38621;52.830;6.914;2023-11-19T07:19:11;19.63;;;7.55;;
52724;SDS011;38621;52.830;6.914;2023-11-19T07:21:37;16.42;;;7.35;;
52724;SDS011;38621;52.830;6.914;2023-11-19T07:24:09;16.35;;;6.88;;
52724;SDS011;38621;52.830;6.914;2023-11-19T07:26:35;18.95;;;8.30;;
52724;SDS011;38621;52.830;6.914;2023-11-19T07:29:05;20.27;;;8.02;;
52724;SDS011;38621;52.830;6.914;2023-11-19T07:31:32;13.35;;;7.50;;
52724;SDS011;38621;52.830;6.914;2023-11-19T07:33:58;21.17;;;7.30;;
52724;SDS011;38621;52.830;6.914;2023-11-19T07:36:24;17.42;;;7.53;;
52724;SDS011;38621;52.830;6.914;2023-11-19T07:38:49;19.58;;;7.47;;
52724;SDS011;38621;52.830;6.914;2023-11-19T07:41:16;19.42;;;7.40;;
52724;SDS011;38621;52.830;6.914;2023-11-19T07:43:43;18.73;;;7.30;;
52724;SDS011;38621;52.830;6.914;2023-11-19T07:46:13;22.25;;;7.47;;
52724;SDS011;38621;52.830;6.914;2023-11-19T07:48:39;18.10;;;7.03;;
52724;SDS011;38621;52.830;6.914;2023-11-19T07:51:06;14.18;;;6.72;;
52724;SDS011;38621;52.830;6.914;2023-11-19T07:53:31;19.30;;;8.57;;
52724;SDS011;38621;52.830;6.914;2023-11-19T07:56:00;20.02;;;6.53;;
52724;SDS011;38621;52.830;6.914;2023-11-19T07:58:26;19.02;;;7.25;;
52724;SDS011;38621;52.830;6.914;2023-11-19T08:00:52;19.33;;;7.13;;
52724;SDS011;38621;52.830;6.914;2023-11-19T08:03:17;19.42;;;7.03;;
52724;SDS011;38621;52.830;6.914;2023-11-19T08:05:49;15.98;;;6.20;;
52724;SDS011;38621;52.830;6.914;2023-11-19T08:08:16;21.42;;;6.28;;
52724;SDS011;38621;52.830;6.914;2023-11-19T08:10:42;19.42;;;7.00;;
52724;SDS011;38621;52.830;6.914;2023-11-19T08:13:12;16.70;;;6.45;;
52724;SDS011;38621;52.830;6.914;2023-11-19T08:15:38;17.08;;;5.65;;
52724;SDS011;38621;52.830;6.914;2023-11-19T08:18:05;19.67;;;5.70;;
52724;SDS011;38621;52.830;6.914;2023-11-19T08:20:32;16.95;;;5.65;;
52724;SDS011;38621;52.830;6.914;2023-11-19T08:22:58;13.13;;;5.38;;
52724;SDS011;38621;52.830;6.914;2023-11-19T08:25:24;19.80;;;6.38;;
52724;SDS011;38621;52.830;6.914;2023-11-19T08:27:50;12.45;;;6.30;;
52724;SDS011;38621;52.830;6.914;2023-11-19T08:30:15;18.35;;;7.18;;
52724;SDS011;38621;52.830;6.914;2023-11-19T08:32:41;16.55;;;7.30;;
52724;SDS011;38621;52.830;6.914;2023-11-19T08:35:07;16.95;;;7.30;;
52724;SDS011;38621;52.830;6.914;2023-11-19T08:37:33;20.25;;;8.90;;
52724;SDS011;38621;52.830;6.914;2023-11-19T08:40:01;22.75;;;9.52;;
52724;SDS011;38621;52.830;6.914;2023-11-19T08:42:29;16.60;;;10.75;;
52724;SDS011;38621;52.830;6.914;2023-11-19T08:44:55;20.30;;;11.52;;
52724;SDS011;38621;52.830;6.914;2023-11-19T08:47:20;15.55;;;7.43;;
52724;SDS011;38621;52.830;6.914;2023-11-19T08:49:47;22.58;;;9.75;;
52724;SDS011;38621;52.830;6.914;2023-11-19T08:52:16;20.23;;;9.23;;
52724;SDS011;38621;52.830;6.914;2023-11-19T08:54:43;15.60;;;9.82;;
52724;SDS011;38621;52.830;6.914;2023-11-19T08:57:09;22.05;;;12.32;;
52724;SDS011;38621;52.830;6.914;2023-11-19T08:59:34;17.73;;;12.25;;
52724;SDS011;38621;52.830;6.914;2023-11-19T09:02:02;21.40;;;11.00;;
52724;SDS011;38621;52.830;6.914;2023-11-19T09:04:29;18.15;;;11.43;;
52724;SDS011;38621;52.830;6.914;2023-11-19T09:06:57;20.10;;;11.38;;
52724;SDS011;38621;52.830;6.914;2023-11-19T09:09:22;21.98;;;12.30;;
52724;SDS011;38621;52.830;6.914;2023-11-19T09:11:48;22.00;;;13.15;;
52724;SDS011;38621;52.830;6.914;2023-11-19T09:14:14;23.38;;;11.98;;
52724;SDS011;38621;52.830;6.914;2023-11-19T09:16:40;17.50;;;9.77;;
52724;SDS011;38621;52.830;6.914;2023-11-19T09:19:06;20.00;;;9.45;;
52724;SDS011;38621;52.830;6.914;2023-11-19T09:21:32;16.33;;;9.13;;
52724;SDS011;38621;52.830;6.914;2023-11-19T09:23:59;17.23;;;9.43;;
52724;SDS011;38621;52.830;6.914;2023-11-19T09:26:25;20.40;;;8.05;;
52724;SDS011;38621;52.830;6.914;2023-11-19T09:28:51;21.17;;;7.45;;
52724;SDS011;38621;52.830;6.914;2023-11-19T09:31:17;28.45;;;8.00;;
52724;SDS011;38621;52.830;6.914;2023-11-19T09:33:43;16.45;;;7.57;;
52724;SDS011;38621;52.830;6.914;2023-11-19T09:36:11;22.27;;;7.15;;
52724;SDS011;38621;52.830;6.914;2023-11-19T09:38:39;13.77;;;6.82;;
52724;SDS011;38621;52.830;6.914;2023-11-19T09:41:05;20.70;;;7.35;;
52724;SDS011;38621;52.830;6.914;2023-11-19T09:43:34;17.92;;;6.72;;
52724;SDS011;38621;52.830;6.914;2023-11-19T09:46:05;25.92;;;7.47;;
52724;SDS011;38621;52.830;6.914;2023-11-19T09:48:35;16.67;;;6.93;;
52724;SDS011;38621;52.830;6.914;2023-11-19T09:51:05;17.73;;;5.93;;
52724;SDS011;38621;52.830;6.914;2023-11-19T09:53:33;18.92;;;6.35;;
52724;SDS011;38621;52.830;6.914;2023-11-19T09:55:59;21.02;;;5.85;;
52724;SDS011;38621;52.830;6.914;2023-11-19T09:58:28;16.48;;;6.28;;
52724;SDS011;38621;52.830;6.914;2023-11-19T10:00:55;17.42;;;7.00;;
52724;SDS011;38621;52.830;6.914;2023-11-19T10:03:20;20.45;;;6.00;;
52724;SDS011;38621;52.830;6.914;2023-11-19T10:05:48;21.60;;;5.63;;
52724;SDS011;38621;52.830;6.914;2023-11-19T10:08:14;26.08;;;6.38;;
52724;SDS011;38621;52.830;6.914;2023-11-19T10:10:41;19.52;;;6.40;;
52724;SDS011;38621;52.830;6.914;2023-11-19T10:13:06;16.92;;;6.25;;
52724;SDS011;38621;52.830;6.914;2023-11-19T10:15:36;15.07;;;5.70;;
52724;SDS011;38621;52.830;6.914;2023-11-19T10:18:03;13.35;;;6.53;;
52724;SDS011;38621;52.830;6.914;2023-11-19T10:20:37;26.17;;;10.18;;
52724;SDS011;38621;52.830;6.914;2023-11-19T10:23:06;20.98;;;10.15;;
52724;SDS011;38621;52.830;6.914;2023-11-19T10:25:32;17.00;;;11.45;;
52724;SDS011;38621;52.830;6.914;2023-11-19T10:27:58;19.55;;;11.70;;
52724;SDS011;38621;52.830;6.914;2023-11-19T10:30:29;22.85;;;12.20;;
52724;SDS011;38621;52.830;6.914;2023-11-19T10:35:34;19.50;;;12.30;;
52724;SDS011;38621;52.830;6.914;2023-11-19T10:38:01;23.65;;;12.57;;
52724;SDS011;38621;52.830;6.914;2023-11-19T10:40:42;21.27;;;11.57;;
52724;SDS011;38621;52.830;6.914;2023-11-19T10:43:08;22.92;;;10.60;;
52724;SDS011;38621;52.830;6.914;2023-11-19T10:45:35;28.17;;;11.20;;
52724;SDS011;38621;52.830;6.914;2023-11-19T10:48:04;23.23;;;11.80;;
52724;SDS011;38621;52.830;6.914;2023-11-19T10:50:32;21.92;;;10.95;;
52724;SDS011;38621;52.830;6.914;2023-11-19T10:52:59;20.85;;;10.07;;
52724;SDS011;38621;52.830;6.914;2023-11-19T10:55:30;15.43;;;9.95;;
52724;SDS011;38621;52.830;6.914;2023-11-19T10:58:07;20.42;;;11.25;;
52724;SDS011;38621;52.830;6.914;2023-11-19T11:00:59;24.33;;;11.60;;
52724;SDS011;38621;52.830;6.914;2023-11-19T11:03:29;20.02;;;11.65;;
52724;SDS011;38621;52.830;6.914;2023-11-19T11:06:00;22.00;;;12.52;;
52724;SDS011;38621;52.830;6.914;2023-11-19T11:08:28;24.95;;;12.77;;
52724;SDS011;38621;52.830;6.914;2023-11-19T11:10:56;23.63;;;11.73;;
52724;SDS011;38621;52.830;6.914;2023-11-19T11:13:25;21.67;;;10.90;;
52724;SDS011;38621;52.830;6.914;2023-11-19T11:15:55;18.35;;;7.75;;
52724;SDS011;38621;52.830;6.914;2023-11-19T11:18:25;17.02;;;8.70;;
52724;SDS011;38621;52.830;6.914;2023-11-19T11:20:52;17.83;;;11.25;;
52724;SDS011;38621;52.830;6.914;2023-11-19T11:28:18;19.33;;;8.88;;
52724;SDS011;38621;52.830;6.914;2023-11-19T11:33:31;20.42;;;7.25;;
52724;SDS011;38621;52.830;6.914;2023-11-19T11:38:45;20.92;;;8.65;;
52724;SDS011;38621;52.830;6.914;2023-11-19T11:41:17;18.27;;;8.05;;
52724;SDS011;38621;52.830;6.914;2023-11-19T11:43:51;21.98;;;8.93;;
52724;SDS011;38621;52.830;6.914;2023-11-19T11:49:01;20.58;;;9.90;;
52724;SDS011;38621;52.830;6.914;2023-11-19T11:54:30;26.63;;;10.95;;
52724;SDS011;38621;52.830;6.914;2023-11-19T11:57:09;15.63;;;7.32;;
52724;SDS011;38621;52.830;6.914;2023-11-19T11:59:43;11.65;;;8.15;;
52724;SDS011;38621;52.830;6.914;2023-11-19T12:02:19;17.55;;;9.52;;
52724;SDS011;38621;52.830;6.914;2023-11-19T12:04:50;19.50;;;10.82;;
52724;SDS011;38621;52.830;6.914;2023-11-19T12:07:18;18.23;;;9.48;;
52724;SDS011;38621;52.830;6.914;2023-11-19T12:09:50;19.88;;;10.55;;
52724;SDS011;38621;52.830;6.914;2023-11-19T12:12:32;23.25;;;8.95;;
52724;SDS011;38621;52.830;6.914;2023-11-19T12:17:48;19.92;;;11.52;;
52724;SDS011;38621;52.830;6.914;2023-11-19T12:20:15;17.67;;;9.30;;
52724;SDS011;38621;52.830;6.914;2023-11-19T12:22:42;15.35;;;9.90;;
52724;SDS011;38621;52.830;6.914;2023-11-19T12:25:10;16.25;;;9.07;;
52724;SDS011;38621;52.830;6.914;2023-11-19T12:27:44;17.83;;;10.13;;
52724;SDS011;38621;52.830;6.914;2023-11-19T12:30:11;16.42;;;11.30;;
52724;SDS011;38621;52.830;6.914;2023-11-19T12:32:40;21.33;;;11.20;;
52724;SDS011;38621;52.830;6.914;2023-11-19T12:35:07;24.75;;;12.75;;
52724;SDS011;38621;52.830;6.914;2023-11-19T12:37:43;17.98;;;12.52;;
52724;SDS011;38621;52.830;6.914;2023-11-19T12:40:14;23.23;;;13.05;;
52724;SDS011;38621;52.830;6.914;2023-11-19T12:42:41;15.85;;;13.70;;
52724;SDS011;38621;52.830;6.914;2023-11-19T12:45:07;24.00;;;15.60;;
52724;SDS011;38621;52.830;6.914;2023-11-19T12:47:45;20.65;;;16.17;;
52724;SDS011;38621;52.830;6.914;2023-11-19T12:50:12;24.10;;;18.73;;
52724;SDS011;38621;52.830;6.914;2023-11-19T12:52:38;20.08;;;16.10;;
52724;SDS011;38621;52.830;6.914;2023-11-19T12:55:05;19.85;;;16.85;;
52724;SDS011;38621;52.830;6.914;2023-11-19T12:57:49;21.63;;;15.07;;
52724;SDS011;38621;52.830;6.914;2023-11-19T13:00:18;18.67;;;16.70;;
52724;SDS011;38621;52.830;6.914;2023-11-19T13:02:46;17.20;;;15.60;;
52724;SDS011;38621;52.830;6.914;2023-11-19T13:05:23;20.00;;;13.38;;
52724;SDS011;38621;52.830;6.914;2023-11-19T13:08:06;18.52;;;11.23;;
52724;SDS011;38621;52.830;6.914;2023-11-19T13:10:33;21.80;;;13.75;;
52724;SDS011;38621;52.830;6.914;2023-11-19T13:13:21;16.25;;;11.98;;
52724;SDS011;38621;52.830;6.914;2023-11-19T13:15:47;15.85;;;12.52;;
52724;SDS011;38621;52.830;6.914;2023-11-19T13:18:15;31.58;;;13.43;;
52724;SDS011;38621;52.830;6.914;2023-11-19T13:20:41;15.65;;;13.95;;
52724;SDS011;38621;52.830;6.914;2023-11-19T13:23:07;16.25;;;12.43;;
52724;SDS011;38621;52.830;6.914;2023-11-19T13:25:33;16.88;;;13.20;;
52724;SDS011;38621;52.830;6.914;2023-11-19T13:27:59;14.35;;;12.68;;
52724;SDS011;38621;52.830;6.914;2023-11-19T13:30:25;19.38;;;12.98;;
52724;SDS011;38621;52.830;6.914;2023-11-19T13:32:52;16.52;;;12.80;;
52724;SDS011;38621;52.830;6.914;2023-11-19T13:35:20;15.05;;;10.82;;
52724;SDS011;38621;52.830;6.914;2023-11-19T13:37:47;16.10;;;11.88;;
52724;SDS011;38621;52.830;6.914;2023-11-19T13:40:13;19.95;;;12.50;;
52724;SDS011;38621;52.830;6.914;2023-11-19T13:42:43;24.00;;;13.75;;
52724;SDS011;38621;52.830;6.914;2023-11-19T13:45:10;15.48;;;11.75;;
52724;SDS011;38621;52.830;6.914;2023-11-19T13:47:37;14.23;;;11.40;;
52724;SDS011;38621;52.830;6.914;2023-11-19T13:50:13;17.40;;;9.23;;
52724;SDS011;38621;52.830;6.914;2023-11-19T13:52:41;16.95;;;7.82;;
52724;SDS011;38621;52.830;6.914;2023-11-19T13:55:08;20.30;;;10.23;;
52724;SDS011;38621;52.830;6.914;2023-11-19T13:57:38;22.63;;;9.38;;
52724;SDS011;38621;52.830;6.914;2023-11-19T14:00:05;15.50;;;8.15;;
52724;SDS011;38621;52.830;6.914;2023-11-19T14:02:41;16.15;;;8.02;;
52724;SDS011;38621;52.830;6.914;2023-11-19T14:05:11;17.02;;;8.93;;
52724;SDS011;38621;52.830;6.914;2023-11-19T14:07:38;15.55;;;7.65;;
52724;SDS011;38621;52.830;6.914;2023-11-19T14:10:04;13.75;;;7.88;;
52724;SDS011;38621;52.830;6.914;2023-11-19T14:12:31;9.10;;;6.30;;
52724;SDS011;38621;52.830;6.914;2023-11-19T14:14:58;8.30;;;5.40;;
52724;SDS011;38621;52.830;6.914;2023-11-19T14:17:25;14.23;;;5.75;;
52724;SDS011;38621;52.830;6.914;2023-11-19T14:19:51;18.05;;;6.25;;
52724;SDS011;38621;52.830;6.914;2023-11-19T14:22:16;11.43;;;7.25;;
52724;SDS011;38621;52.830;6.914;2023-11-19T14:24:42;15.07;;;7.50;;
52724;SDS011;38621;52.830;6.914;2023-11-19T14:27:08;14.75;;;8.00;;
52724;SDS011;38621;52.830;6.914;2023-11-19T14:29:35;16.33;;;10.65;;
52724;SDS011;38621;52.830;6.914;2023-11-19T14:32:01;15.07;;;10.90;;
52724;SDS011;38621;52.830;6.914;2023-11-19T14:34:28;18.58;;;13.60;;
52724;SDS011;38621;52.830;6.914;2023-11-19T14:36:57;17.38;;;12.15;;
52724;SDS011;38621;52.830;6.914;2023-11-19T14:39:24;20.20;;;14.13;;
52724;SDS011;38621;52.830;6.914;2023-11-19T14:41:50;15.05;;;12.45;;
52724;SDS011;38621;52.830;6.914;2023-11-19T14:44:16;21.23;;;14.20;;
52724;SDS011;38621;52.830;6.914;2023-11-19T14:46:42;22.95;;;15.40;;
52724;SDS011;38621;52.830;6.914;2023-11-19T14:49:08;21.02;;;15.50;;
52724;SDS011;38621;52.830;6.914;2023-11-19T14:51:37;16.67;;;15.00;;
52724;SDS011;38621;52.830;6.914;2023-11-19T14:54:06;20.48;;;18.50;;